createdAt,value
2023-12-08T00:30:53.492Z,11
2023-12-08T01:01:54.449Z,13
2023-12-08T01:33:00.101Z,11
2023-12-08T02:04:05.112Z,11
2023-12-08T02:35:08.578Z,11
2023-12-08T03:06:16.786Z,11
2023-12-08T03:37:22.028Z,10
2023-12-08T04:08:24.886Z,8
2023-12-08T04:39:34.725Z,8
2023-12-08T05:10:39.041Z,7
2023-12-08T05:41:45.530Z,6
2023-12-08T06:12:48.527Z,6
2023-12-08T06:43:55.550Z,6
2023-12-08T07:15:03.035Z,5
2023-12-08T07:46:08.749Z,5
2023-12-08T08:17:12.335Z,5
2023-12-08T08:48:18.861Z,6
2023-12-08T09:19:22.521Z,7
2023-12-08T09:50:30.327Z,5
2023-12-08T10:21:37.589Z,6
2023-12-08T10:52:45.851Z,5
2023-12-08T11:23:49.146Z,5
2023-12-08T11:54:55.241Z,4
2023-12-08T12:26:00.941Z,4
2023-12-08T12:57:06.278Z,5
2023-12-08T13:28:12.072Z,4
2023-12-08T13:59:20.218Z,4
2023-12-08T14:30:29.119Z,5
2023-12-08T15:01:34.401Z,4
2023-12-08T15:32:38.944Z,5
2023-12-08T16:03:41.036Z,4
2023-12-08T16:34:46.492Z,4
2023-12-08T17:05:51.441Z,6
2023-12-08T17:36:56.729Z,6
2023-12-08T18:08:01.648Z,7
2023-12-08T18:39:10.369Z,7
2023-12-08T19:10:20.065Z,7
2023-12-08T19:41:21.824Z,7
2023-12-08T20:12:29.657Z,8
2023-12-08T20:43:32.522Z,9
2023-12-08T21:14:35.197Z,8
2023-12-08T21:45:44.705Z,8
2023-12-08T22:16:49.346Z,8
2023-12-08T22:47:55.690Z,8
2023-12-08T23:19:01.107Z,7
2023-12-08T23:50:07.223Z,6
